Etusivu
METAR-TAF:

METAR-TAF

Lentoasemat :

Troy, Michigan, Yhdysvallat

Leveyspiiri: 42-32-35N, Pituuspiiri: 083-10-40W, korkeus merenpinnasta: 222 m

Tämänhetkinen sää

Tämä raportti tehtiin 23 minuuttia sitten, kello 17.35 UTC
tyyntä
Lämpötila 4°C
Kosteus 87%
Ilmanpaine 1009 hPa
Näkyvyys: 8.0 km
Hajanaisia pilviä 3000 ft:n korkeudessa
Pilvistä 4200 ft:n korkeudessa
utua

METAR: KVLL 191735Z AUTO 00000KT 5SM BR SCT030 OVC042 04/02 A2981 RMK AO2 T00350021

Aika: 12:58 (17:58 UTC)


TAF: puuttuu

Säähavainnot ja -ennusteet yli 4000 lentoasemalta (METAR- ja TAF-raportit).

Käytössä olevat sääasemat on merkitty karttaan keltaisilla ja punaisilla pisteillä.

Aseta hiiri pisteen päälle nähdäksesi sääaseman nimen.

Klikkaa sitten nähdäksesi säähavainnot ja -ennusteet.

Kartan vaihtaminen: klikkaa mustalla rastilla varustettuja vihreitä pisteitä, niin voit zoomata sisään; viivalla varustettua vihreää pistettä, niin voit zoomata ulos tai vihreitä nuolia, niin pääset viereisille kartoille.


METAR-TAF: